createdAt,value
2023-05-23T00:00:11.632Z,13.80
2023-05-23T00:02:39.557Z,15.13
2023-05-23T00:05:07.646Z,14.45
2023-05-23T00:07:35.107Z,16.20
2023-05-23T00:10:02.450Z,11.98
2023-05-23T00:12:29.912Z,15.80
2023-05-23T00:14:57.544Z,17.70
2023-05-23T00:17:25.932Z,13.63
2023-05-23T00:19:53.267Z,15.40
2023-05-23T00:22:20.675Z,13.57
2023-05-23T00:24:48.065Z,14.65
2023-05-23T00:27:15.544Z,16.52
2023-05-23T00:29:42.794Z,17.10
2023-05-23T00:32:10.281Z,15.77
2023-05-23T00:34:37.942Z,13.40
2023-05-23T00:37:05.624Z,14.70
2023-05-23T00:39:33.180Z,16.52
2023-05-23T00:42:05.658Z,15.30
2023-05-23T00:44:33.078Z,13.63
2023-05-23T00:47:01.203Z,16.58
2023-05-23T00:49:28.948Z,15.18
2023-05-23T00:51:56.777Z,15.75
2023-05-23T00:54:28.897Z,19.48
2023-05-23T00:56:56.521Z,14.27
2023-05-23T00:59:26.335Z,14.68
2023-05-23T01:01:56.988Z,17.17
2023-05-23T01:04:27.065Z,13.40
2023-05-23T01:06:56.383Z,14.23
2023-05-23T01:09:27.555Z,14.32
2023-05-23T01:12:01.044Z,18.13
2023-05-23T01:14:38.392Z,16.65
2023-05-23T01:17:13.895Z,14.18
2023-05-23T01:19:55.422Z,17.20
2023-05-23T01:22:35.392Z,15.98
2023-05-23T01:25:24.192Z,15.57
2023-05-23T01:27:57.367Z,15.07
2023-05-23T01:30:28.032Z,12.98
2023-05-23T01:32:58.800Z,15.80
2023-05-23T01:35:27.650Z,17.20
2023-05-23T01:37:56.120Z,14.57
2023-05-23T01:40:25.959Z,18.92
2023-05-23T01:42:57.725Z,16.23
2023-05-23T01:45:28.297Z,15.15
2023-05-23T01:47:57.061Z,17.52
2023-05-23T01:50:26.981Z,19.77
2023-05-23T01:52:56.161Z,18.83
2023-05-23T01:55:26.605Z,16.70
2023-05-23T01:57:57.206Z,21.77
2023-05-23T02:00:25.275Z,20.00
2023-05-23T02:02:52.994Z,17.52
2023-05-23T02:05:20.750Z,19.02
2023-05-23T02:07:48.209Z,16.25
2023-05-23T02:10:18.156Z,23.10
2023-05-23T02:12:45.859Z,23.45
2023-05-23T02:15:13.262Z,22.25
2023-05-23T02:17:43.423Z,16.50
2023-05-23T02:20:11.448Z,20.95
2023-05-23T02:22:39.440Z,19.73
2023-05-23T02:25:07.693Z,16.73
2023-05-23T02:27:35.060Z,23.65
2023-05-23T02:30:02.492Z,19.70
2023-05-23T02:32:30.543Z,19.02
2023-05-23T02:34:58.397Z,19.27
2023-05-23T02:37:25.659Z,20.08
2023-05-23T02:39:53.801Z,20.48
2023-05-23T02:42:22.612Z,17.73
2023-05-23T02:44:50.448Z,19.40
2023-05-23T02:47:18.610Z,26.52
2023-05-23T02:49:46.148Z,21.85
2023-05-23T02:52:14.388Z,22.65
2023-05-23T02:54:41.938Z,18.35
2023-05-23T02:57:09.455Z,21.65
2023-05-23T02:59:40.099Z,20.80
2023-05-23T03:02:07.613Z,20.95
2023-05-23T03:04:35.055Z,23.02
2023-05-23T03:07:05.469Z,22.65
2023-05-23T03:09:35.762Z,21.27
2023-05-23T03:12:04.045Z,25.15
2023-05-23T03:14:31.588Z,20.65
2023-05-23T03:16:58.905Z,23.65
2023-05-23T03:19:26.375Z,22.15
2023-05-23T03:21:53.718Z,23.25
2023-05-23T03:24:21.155Z,22.50
2023-05-23T03:26:48.365Z,24.17
2023-05-23T03:29:15.795Z,23.13
2023-05-23T03:31:44.247Z,20.17
2023-05-23T03:34:13.091Z,21.33
2023-05-23T03:36:40.505Z,20.75
2023-05-23T03:39:07.860Z,23.83
2023-05-23T03:41:35.399Z,24.92
2023-05-23T03:44:03.701Z,21.80
2023-05-23T03:46:31.603Z,21.85
2023-05-23T03:48:59.065Z,26.08
2023-05-23T03:51:26.606Z,23.35
2023-05-23T03:53:54.195Z,26.67
2023-05-23T03:56:23.013Z,26.30
2023-05-23T03:58:51.060Z,29.52
2023-05-23T04:01:18.373Z,27.20
2023-05-23T04:03:48.252Z,26.73
2023-05-23T04:06:17.484Z,27.95
2023-05-23T04:08:46.737Z,22.20
2023-05-23T04:11:14.408Z,22.33
2023-05-23T04:13:42.904Z,21.55
2023-05-23T04:16:11.530Z,27.20
2023-05-23T04:18:39.352Z,21.58
2023-05-23T04:21:08.306Z,25.08
2023-05-23T04:23:40.322Z,21.42
2023-05-23T04:26:08.153Z,20.98
2023-05-23T04:28:41.123Z,25.40
2023-05-23T04:31:08.686Z,25.83
2023-05-23T04:33:37.472Z,24.92
2023-05-23T04:36:09.289Z,22.70
2023-05-23T04:38:41.117Z,23.30
2023-05-23T04:41:10.630Z,25.95
2023-05-23T04:43:47.744Z,21.90
2023-05-23T04:46:22.866Z,23.65
2023-05-23T04:48:56.494Z,20.73
2023-05-23T04:51:24.016Z,23.60
2023-05-23T04:53:56.005Z,22.65
2023-05-23T04:56:28.501Z,28.92
2023-05-23T04:58:56.533Z,26.00
2023-05-23T05:01:25.853Z,27.23
2023-05-23T05:03:54.200Z,24.25
2023-05-23T05:06:22.874Z,27.05
2023-05-23T05:08:51.805Z,24.05
2023-05-23T05:11:21.219Z,29.77
2023-05-23T05:13:48.570Z,30.05
2023-05-23T05:16:15.892Z,26.73
2023-05-23T05:18:43.402Z,30.70
2023-05-23T05:21:10.700Z,30.73
2023-05-23T05:23:38.485Z,25.67
2023-05-23T05:26:08.512Z,31.20
2023-05-23T05:28:36.619Z,25.35
2023-05-23T05:31:05.404Z,25.27
2023-05-23T05:33:36.437Z,35.58
2023-05-23T05:36:08.748Z,29.88
2023-05-23T05:38:36.370Z,33.38
2023-05-23T05:41:04.205Z,27.73
2023-05-23T05:43:36.001Z,27.88
2023-05-23T05:46:04.039Z,27.63
2023-05-23T05:48:31.940Z,31.40
2023-05-23T05:51:03.496Z,25.90
2023-05-23T05:53:33.865Z,31.33
2023-05-23T05:56:02.428Z,32.85
2023-05-23T05:58:31.012Z,30.42
2023-05-23T06:01:01.994Z,28.27
2023-05-23T06:03:29.490Z,32.72
2023-05-23T06:05:57.455Z,30.30
2023-05-23T06:08:24.906Z,34.97
2023-05-23T06:10:52.350Z,35.03
2023-05-23T06:13:19.952Z,34.28
2023-05-23T06:15:53.440Z,33.92
2023-05-23T06:18:20.986Z,30.27
2023-05-23T06:20:49.218Z,31.05
2023-05-23T06:23:17.850Z,34.15
2023-05-23T06:25:47.030Z,33.45
2023-05-23T06:28:14.484Z,30.02
2023-05-23T06:30:42.121Z,28.88
2023-05-23T06:33:09.848Z,33.00
2023-05-23T06:35:37.259Z,31.70
2023-05-23T06:38:04.626Z,27.63
2023-05-23T06:40:31.885Z,29.67
2023-05-23T06:42:59.452Z,29.38
2023-05-23T06:45:28.189Z,30.42
2023-05-23T06:47:55.695Z,29.85
2023-05-23T06:50:23.204Z,36.17
2023-05-23T06:52:51.961Z,28.40
2023-05-23T06:55:19.702Z,29.83
2023-05-23T06:57:52.300Z,29.90
2023-05-23T07:00:21.716Z,30.38
2023-05-23T07:03:03.900Z,31.50
2023-05-23T07:05:33.479Z,32.60
2023-05-23T07:08:01.136Z,33.22
2023-05-23T07:10:28.682Z,29.88
2023-05-23T07:13:03.554Z,31.75
2023-05-23T07:15:31.076Z,28.08
2023-05-23T07:18:08.265Z,29.38
2023-05-23T07:20:36.581Z,26.55
2023-05-23T07:23:12.232Z,32.92
2023-05-23T07:25:53.776Z,31.70
2023-05-23T07:28:30.312Z,27.58
2023-05-23T07:30:58.904Z,31.35
2023-05-23T07:33:27.931Z,28.73
2023-05-23T07:36:01.039Z,32.37
2023-05-23T07:38:28.474Z,26.85
2023-05-23T07:41:09.836Z,25.55
2023-05-23T07:43:39.301Z,29.85
2023-05-23T07:46:06.981Z,30.02
2023-05-23T07:48:34.412Z,29.38
2023-05-23T07:51:01.793Z,24.80
2023-05-23T07:53:29.616Z,30.45
2023-05-23T07:55:58.227Z,30.75
2023-05-23T07:58:30.872Z,32.42
2023-05-23T08:00:59.698Z,31.90
2023-05-23T08:03:28.594Z,29.90
2023-05-23T08:06:05.265Z,30.02
2023-05-23T08:08:33.492Z,27.23
2023-05-23T08:11:01.272Z,31.15
2023-05-23T08:13:36.004Z,29.33
2023-05-23T08:16:04.969Z,25.70
2023-05-23T08:18:33.651Z,41.08
2023-05-23T08:21:03.263Z,28.33
2023-05-23T08:23:30.906Z,29.35
2023-05-23T08:25:58.348Z,28.85
2023-05-23T08:28:25.959Z,26.65
2023-05-23T08:30:57.413Z,30.40
2023-05-23T08:33:25.634Z,30.70
2023-05-23T08:35:56.830Z,31.05
2023-05-23T08:38:24.498Z,28.85
2023-05-23T08:41:02.915Z,28.23
2023-05-23T08:43:31.684Z,29.23
2023-05-23T08:45:59.148Z,31.00
2023-05-23T08:48:32.527Z,27.27
2023-05-23T08:51:00.879Z,33.42
2023-05-23T08:53:29.458Z,33.78
2023-05-23T08:56:04.537Z,29.83
2023-05-23T08:58:42.306Z,29.30
2023-05-23T09:01:11.763Z,29.45
2023-05-23T09:03:42.815Z,34.63
2023-05-23T09:06:29.880Z,33.10
2023-05-23T09:08:58.017Z,29.88
2023-05-23T09:11:26.486Z,33.20
2023-05-23T09:13:53.832Z,31.55
2023-05-23T09:16:23.514Z,28.38
2023-05-23T09:18:55.271Z,28.92
2023-05-23T09:21:26.198Z,27.15
2023-05-23T09:23:55.997Z,36.28
2023-05-23T09:26:24.218Z,31.95
2023-05-23T09:28:51.454Z,31.58
2023-05-23T09:31:18.789Z,29.40
2023-05-23T09:33:48.453Z,27.45
2023-05-23T09:36:17.898Z,32.33
2023-05-23T09:38:48.989Z,32.95
2023-05-23T09:41:16.396Z,26.88
2023-05-23T09:43:48.050Z,24.98
2023-05-23T09:46:15.380Z,26.50
2023-05-23T09:48:47.962Z,24.45
2023-05-23T09:51:15.370Z,26.35
2023-05-23T09:53:42.579Z,24.55
2023-05-23T09:56:11.726Z,25.67
2023-05-23T09:58:40.797Z,26.05
2023-05-23T10:01:10.610Z,24.40
2023-05-23T10:03:42.928Z,24.63
2023-05-23T10:06:18.099Z,25.40
2023-05-23T10:08:50.797Z,22.23
2023-05-23T10:11:57.811Z,19.77
2023-05-23T10:14:29.160Z,20.08
2023-05-23T10:16:59.631Z,21.27
2023-05-23T10:19:36.204Z,19.33
2023-05-23T10:22:07.449Z,17.27
2023-05-23T10:24:35.779Z,19.80
2023-05-23T10:27:04.168Z,19.48
2023-05-23T10:29:34.098Z,17.80
2023-05-23T10:32:03.109Z,21.75
2023-05-23T10:34:37.327Z,17.30
2023-05-23T10:37:06.525Z,21.38
2023-05-23T10:39:49.673Z,18.90
2023-05-23T10:42:22.434Z,15.73
2023-05-23T10:44:49.705Z,19.20
2023-05-23T10:47:28.873Z,18.05
2023-05-23T10:49:56.675Z,17.88
2023-05-23T10:52:26.657Z,19.45
2023-05-23T10:54:55.378Z,20.42
2023-05-23T10:57:27.875Z,19.05
2023-05-23T10:59:55.804Z,20.25
2023-05-23T11:02:26.579Z,17.05
2023-05-23T11:05:15.305Z,19.15
2023-05-23T11:07:43.358Z,14.68
2023-05-23T11:10:12.400Z,16.83
2023-05-23T11:12:42.377Z,17.35
2023-05-23T11:15:24.352Z,21.23
2023-05-23T11:17:54.486Z,15.07
2023-05-23T11:20:26.576Z,15.73
2023-05-23T11:22:56.098Z,18.08
2023-05-23T11:25:42.038Z,14.93
2023-05-23T11:28:10.818Z,17.48
2023-05-23T11:30:38.859Z,20.88
2023-05-23T11:33:09.540Z,17.42
2023-05-23T11:35:37.631Z,24.67
2023-05-23T11:38:05.807Z,17.80
2023-05-23T11:40:35.323Z,18.80
2023-05-23T11:43:05.259Z,20.02
2023-05-23T11:45:34.188Z,18.63
2023-05-23T11:48:04.903Z,17.80
2023-05-23T11:50:32.200Z,18.90
2023-05-23T11:53:00.559Z,17.25
2023-05-23T11:55:27.890Z,16.85
2023-05-23T11:57:56.703Z,15.52
2023-05-23T12:00:24.188Z,19.38
2023-05-23T12:02:51.469Z,17.73
2023-05-23T12:05:18.881Z,16.38
2023-05-23T12:07:48.989Z,14.85
2023-05-23T12:10:17.124Z,18.65
2023-05-23T12:12:45.007Z,19.75
2023-05-23T12:15:13.429Z,18.95
2023-05-23T12:17:44.187Z,18.85
2023-05-23T12:20:12.174Z,21.48
2023-05-23T12:22:39.359Z,18.15
2023-05-23T12:25:10.690Z,18.58
2023-05-23T12:27:41.752Z,21.15
2023-05-23T12:30:13.581Z,16.35
2023-05-23T12:32:42.289Z,20.13
2023-05-23T12:35:13.203Z,19.90
2023-05-23T12:37:43.748Z,18.30
2023-05-23T12:40:14.677Z,19.35
2023-05-23T12:42:45.258Z,20.42
2023-05-23T12:45:15.519Z,17.20
2023-05-23T12:47:42.733Z,18.75
2023-05-23T12:50:11.842Z,21.23
2023-05-23T12:52:40.197Z,16.48
2023-05-23T12:55:09.268Z,16.83
2023-05-23T12:57:36.615Z,17.08
2023-05-23T13:00:04.668Z,17.45
2023-05-23T13:02:31.859Z,19.92
2023-05-23T13:04:59.211Z,17.95
2023-05-23T13:07:26.323Z,17.98
2023-05-23T13:09:53.608Z,18.02
2023-05-23T13:12:21.096Z,15.95
2023-05-23T13:14:48.826Z,19.42
2023-05-23T13:17:16.428Z,16.23
2023-05-23T13:19:43.832Z,17.25
2023-05-23T13:22:11.179Z,17.42
2023-05-23T13:24:39.038Z,16.65
2023-05-23T13:27:07.784Z,16.95
2023-05-23T13:29:35.152Z,16.13
2023-05-23T13:32:02.335Z,15.57
2023-05-23T13:34:29.753Z,14.52
2023-05-23T13:36:56.929Z,18.48
2023-05-23T13:39:24.668Z,15.55
2023-05-23T13:41:51.855Z,15.77
2023-05-23T13:44:19.095Z,14.35
2023-05-23T13:46:46.276Z,18.80
2023-05-23T13:49:13.647Z,20.38
2023-05-23T13:51:42.117Z,15.52
2023-05-23T13:54:09.454Z,15.10
2023-05-23T13:56:38.508Z,19.15
2023-05-23T13:59:05.838Z,14.02
2023-05-23T14:01:33.210Z,15.20
2023-05-23T14:04:00.461Z,17.38
2023-05-23T14:06:27.648Z,14.10
2023-05-23T14:08:54.788Z,17.10
2023-05-23T14:11:22.098Z,13.10
2023-05-23T14:13:49.198Z,17.50
2023-05-23T14:16:16.468Z,16.17
2023-05-23T14:18:45.378Z,15.45
2023-05-23T14:21:12.611Z,20.20
2023-05-23T14:23:39.690Z,15.55
2023-05-23T14:26:07.349Z,17.95
2023-05-23T14:28:34.584Z,15.82
2023-05-23T14:31:01.827Z,19.45
2023-05-23T14:33:29.124Z,15.60
2023-05-23T14:35:56.456Z,19.35
2023-05-23T14:38:23.644Z,16.83
2023-05-23T14:40:51.013Z,19.25
2023-05-23T14:43:18.165Z,17.40
2023-05-23T14:45:45.484Z,19.27
2023-05-23T14:48:12.956Z,18.35
2023-05-23T14:50:40.873Z,21.80
2023-05-23T14:53:08.048Z,20.85
2023-05-23T14:55:35.841Z,17.13
2023-05-23T14:58:03.683Z,15.82
2023-05-23T15:00:30.870Z,19.95
2023-05-23T15:02:58.130Z,20.45
2023-05-23T15:05:25.660Z,20.98
2023-05-23T15:07:52.786Z,18.70
2023-05-23T15:10:20.069Z,18.25
2023-05-23T15:12:47.210Z,20.08
2023-05-23T15:15:16.596Z,19.83
2023-05-23T15:17:43.886Z,23.58
2023-05-23T15:20:11.754Z,21.55
2023-05-23T15:22:40.046Z,22.10
2023-05-23T15:25:09.619Z,19.00
2023-05-23T15:27:37.352Z,22.98
2023-05-23T15:30:04.964Z,22.08
2023-05-23T15:32:32.193Z,20.35
2023-05-23T15:34:59.561Z,20.92
2023-05-23T15:37:26.753Z,18.70
2023-05-23T15:39:53.958Z,19.67
2023-05-23T15:42:21.227Z,16.65
2023-05-23T15:44:48.508Z,19.45
2023-05-23T15:47:15.625Z,16.38
2023-05-23T15:49:42.815Z,17.92
2023-05-23T15:52:09.924Z,14.52
2023-05-23T15:54:37.074Z,16.80
2023-05-23T15:57:04.592Z,16.20
2023-05-23T15:59:31.934Z,19.33
2023-05-23T16:01:59.367Z,19.95
2023-05-23T16:04:26.708Z,17.02
2023-05-23T16:06:53.847Z,17.85
2023-05-23T16:09:20.997Z,15.70
2023-05-23T16:11:48.215Z,18.52
2023-05-23T16:14:15.482Z,17.75
2023-05-23T16:16:42.764Z,15.32
2023-05-23T16:19:10.571Z,16.02
2023-05-23T16:21:37.734Z,14.05
2023-05-23T16:24:06.198Z,15.88
2023-05-23T16:26:33.654Z,15.10
2023-05-23T16:29:00.899Z,17.83
2023-05-23T16:31:30.513Z,19.25
2023-05-23T16:33:58.736Z,15.93
2023-05-23T16:36:25.891Z,15.15
2023-05-23T16:38:55.372Z,18.05
2023-05-23T16:41:23.241Z,16.13
2023-05-23T16:43:51.400Z,17.13
2023-05-23T16:46:20.571Z,15.93
2023-05-23T16:48:48.470Z,16.98
2023-05-23T16:51:16.144Z,15.82
2023-05-23T16:53:43.319Z,14.55
2023-05-23T16:56:10.468Z,15.15
2023-05-23T16:58:38.807Z,17.70
2023-05-23T17:01:07.803Z,16.40
2023-05-23T17:03:35.218Z,16.10
2023-05-23T17:06:02.452Z,17.05
2023-05-23T17:08:29.634Z,15.63
2023-05-23T17:10:56.766Z,18.40
2023-05-23T17:13:23.947Z,15.65
2023-05-23T17:15:51.119Z,20.42
2023-05-23T17:18:18.449Z,20.45
2023-05-23T17:20:45.720Z,20.77
2023-05-23T17:23:12.967Z,16.58
2023-05-23T17:25:40.439Z,18.20
2023-05-23T17:28:07.951Z,17.13
2023-05-23T17:30:35.083Z,17.80
2023-05-23T17:33:02.475Z,15.20
2023-05-23T17:35:29.612Z,17.45
2023-05-23T17:37:58.345Z,22.13
2023-05-23T17:40:26.193Z,17.48
2023-05-23T17:42:53.395Z,18.85
2023-05-23T17:45:21.485Z,20.00
2023-05-23T17:47:48.803Z,17.17
2023-05-23T17:50:16.176Z,17.90
2023-05-23T17:52:44.819Z,16.13
2023-05-23T17:55:12.116Z,16.67
2023-05-23T17:57:39.376Z,16.90
2023-05-23T18:00:07.169Z,18.60
2023-05-23T18:02:39.865Z,17.13
2023-05-23T18:05:07.612Z,19.67
2023-05-23T18:07:35.034Z,18.05
2023-05-23T18:10:03.417Z,17.63
2023-05-23T18:12:30.684Z,17.58
2023-05-23T18:14:57.845Z,18.55
2023-05-23T18:17:25.163Z,16.80
2023-05-23T18:19:52.393Z,19.75
2023-05-23T18:22:20.787Z,17.08
2023-05-23T18:24:48.060Z,17.63
2023-05-23T18:27:15.248Z,17.27
2023-05-23T18:29:42.475Z,19.70
2023-05-23T18:32:09.785Z,21.38
2023-05-23T18:34:37.765Z,18.98
2023-05-23T18:37:05.099Z,19.17
2023-05-23T18:39:32.324Z,20.35
2023-05-23T18:41:59.445Z,20.02
2023-05-23T18:44:26.649Z,21.65
2023-05-23T18:46:53.937Z,20.98
2023-05-23T18:51:48.373Z,23.33
2023-05-23T18:54:15.645Z,20.13
2023-05-23T18:56:42.706Z,20.02
2023-05-23T18:59:14.393Z,20.75
2023-05-23T19:01:41.755Z,20.38
2023-05-23T19:04:09.929Z,23.48
2023-05-23T19:06:37.383Z,23.27
2023-05-23T19:09:09.542Z,22.02
2023-05-23T19:11:37.826Z,20.98
2023-05-23T19:14:05.099Z,22.60
2023-05-23T19:16:33.028Z,17.30
2023-05-23T19:19:00.469Z,19.30
2023-05-23T19:21:28.473Z,24.95
2023-05-23T19:23:56.673Z,19.30
2023-05-23T19:26:24.083Z,21.75
2023-05-23T19:28:51.401Z,21.60
2023-05-23T19:31:18.760Z,20.67
2023-05-23T19:33:46.175Z,21.10
2023-05-23T19:36:13.473Z,19.33
2023-05-23T19:38:40.655Z,19.85
2023-05-23T19:41:08.750Z,22.98
2023-05-23T19:43:35.893Z,17.65
2023-05-23T19:46:03.581Z,19.88
2023-05-23T19:48:30.767Z,23.38
2023-05-23T19:50:57.935Z,21.67
2023-05-23T19:53:25.247Z,20.90
2023-05-23T19:55:52.726Z,21.48
2023-05-23T19:58:19.834Z,22.73
2023-05-23T20:00:47.071Z,22.98
2023-05-23T20:03:14.278Z,20.52
2023-05-23T20:05:41.695Z,24.73
2023-05-23T20:08:09.129Z,20.88
2023-05-23T20:10:36.575Z,22.15
2023-05-23T20:13:04.402Z,21.42
2023-05-23T20:15:39.852Z,20.38
2023-05-23T20:18:08.112Z,21.42
2023-05-23T20:20:35.563Z,28.85
2023-05-23T20:23:03.320Z,21.88
2023-05-23T20:25:31.746Z,21.73
2023-05-23T20:27:58.913Z,26.92
2023-05-23T20:30:26.407Z,21.30
2023-05-23T20:32:54.583Z,18.48
2023-05-23T20:35:22.876Z,18.77
2023-05-23T20:37:51.742Z,21.35
2023-05-23T20:40:19.616Z,23.38
2023-05-23T20:42:47.098Z,19.52
2023-05-23T20:45:15.434Z,21.90
2023-05-23T20:47:43.095Z,20.85
2023-05-23T20:50:11.628Z,20.38
2023-05-23T20:52:41.368Z,19.85
2023-05-23T20:55:09.323Z,18.73
2023-05-23T20:57:36.954Z,19.35
2023-05-23T21:00:06.757Z,20.73
2023-05-23T21:02:34.063Z,19.08
2023-05-23T21:05:01.248Z,16.73
2023-05-23T21:07:28.721Z,17.77
2023-05-23T21:09:56.026Z,15.48
2023-05-23T21:12:23.329Z,18.35
2023-05-23T21:14:50.632Z,18.75
2023-05-23T21:17:20.144Z,17.15
2023-05-23T21:19:47.250Z,18.08
2023-05-23T21:22:14.447Z,15.70
2023-05-23T21:24:42.020Z,18.13
2023-05-23T21:27:09.350Z,19.42
2023-05-23T21:29:36.500Z,19.13
2023-05-23T21:32:04.000Z,15.85
2023-05-23T21:34:31.502Z,17.90
2023-05-23T21:36:58.724Z,19.13
2023-05-23T21:39:28.857Z,15.55
2023-05-23T21:42:00.403Z,17.58
2023-05-23T21:44:27.666Z,17.77
2023-05-23T21:46:54.964Z,19.35
2023-05-23T21:51:48.392Z,16.67
2023-05-23T21:54:15.941Z,16.45
2023-05-23T21:56:43.306Z,17.75
2023-05-23T21:59:10.890Z,15.65
2023-05-23T22:01:38.289Z,16.00
2023-05-23T22:04:05.924Z,16.65
2023-05-23T22:06:33.793Z,17.40
2023-05-23T22:09:01.267Z,16.58
2023-05-23T22:11:34.128Z,15.43
2023-05-23T22:14:01.866Z,16.23
2023-05-23T22:16:33.141Z,16.20
2023-05-23T22:19:02.341Z,18.17
2023-05-23T22:21:29.867Z,17.58
2023-05-23T22:23:57.857Z,17.13
2023-05-23T22:26:25.032Z,17.33
2023-05-23T22:28:53.784Z,19.70
2023-05-23T22:31:21.626Z,16.77
2023-05-23T22:33:49.029Z,17.20
2023-05-23T22:36:16.376Z,18.42
2023-05-23T22:38:44.906Z,20.38
2023-05-23T22:41:12.221Z,19.05
2023-05-23T22:43:39.978Z,18.00
2023-05-23T22:46:07.602Z,18.73
2023-05-23T22:48:35.087Z,18.00
2023-05-23T22:51:03.318Z,19.85
2023-05-23T22:53:31.316Z,15.88
2023-05-23T22:55:58.716Z,16.70
2023-05-23T22:58:26.168Z,17.02
2023-05-23T23:00:53.497Z,19.35
2023-05-23T23:03:20.991Z,16.80
2023-05-23T23:05:48.449Z,16.77
2023-05-23T23:08:16.719Z,15.73
2023-05-23T23:10:44.472Z,16.05
2023-05-23T23:13:14.238Z,17.63
2023-05-23T23:15:42.908Z,16.17
2023-05-23T23:18:13.513Z,17.05
2023-05-23T23:20:41.690Z,20.10
2023-05-23T23:23:09.268Z,19.70
2023-05-23T23:25:37.094Z,15.43
2023-05-23T23:28:04.560Z,15.63
2023-05-23T23:30:32.030Z,18.33
2023-05-23T23:32:59.438Z,16.88
2023-05-23T23:35:26.777Z,17.67
2023-05-23T23:37:54.087Z,14.55
2023-05-23T23:40:21.371Z,15.50
2023-05-23T23:42:48.866Z,16.23
2023-05-23T23:45:16.186Z,15.48
2023-05-23T23:47:43.849Z,14.63
2023-05-23T23:50:13.632Z,15.93
2023-05-23T23:52:41.454Z,17.55
2023-05-23T23:55:09.129Z,15.05
2023-05-23T23:57:36.620Z,19.38
